Terminal Aerodrome Forecast
Issued by NWS Corpus Christi, TX

Home | Current Version | Previous Version | Text Only | Print | Product List | Glossary On
Versions: 1 2 3 4 5 6 7 8 9 10 11 12 13 14 15 16 17 18
000
FTUS44 KCRP 171700
TAFVCT
TAF
KVCT 171730Z 1718/1818 17012KT P6SM VCTS BKN035CB
      TEMPO 1718/1722 5SM TSRA BKN030CB
     FM180000 16008KT P6SM FEW025 SCT100
     FM180300 15005KT P6SM FEW015 BKN250
     FM180700 14005KT 4SM BR FEW008
      TEMPO 1810/1814 1SM BR
     FM181500 15008KT P6SM SCT015=

USA.gov is the U.S. government's official web portal to all federal, state and local government web resources and services.